La rose des vents
Donnes mto: Semaine 08/04/19 - 14/04/19 (S 15)
Date Horaire Temp. E. Hum. E. P.atmo. Pluie Vent 1mn Direction Ensoleilleme Ev.Tr. Solaire P. de rose Temp au vent Rafales
08/04/2019 00:00 8,2 C 93 % 1009,2 hPa 0,0 l/m 0,0 km/h (0 Bft) N 0,00 h 0,000 mm 0 W/m 7,1 C 8,2 C 0,0 km/h (0 Bft)
08/04/2019 01:00 7,6 C 94 % 1009,2 hPa 0,0 l/m 0,0 km/h (0 Bft) N 0,00 h 0,000 mm 0 W/m 6,6 C 7,6 C 0,3 km/h (0 Bft)
08/04/2019 02:00 7,0 C 94 % 1009,0 hPa 0,0 l/m 0,0 km/h (0 Bft) N 0,00 h 0,000 mm 0 W/m 6,1 C 7,0 C 1,1 km/h (1 Bft)
08/04/2019 03:00 6,5 C 94 % 1008,8 hPa 0,0 l/m 0,0 km/h (0 Bft) N-NO 0,00 h 0,000 mm 0 W/m 5,6 C 6,5 C 1,0 km/h (0 Bft)
08/04/2019 04:00 6,5 C 93 % 1008,6 hPa 0,0 l/m 0,0 km/h (0 Bft) N 0,00 h 0,000 mm 0 W/m 5,5 C 6,5 C 0,0 km/h (0 Bft)
08/04/2019 05:00 6,4 C 92 % 1008,6 hPa 0,0 l/m 0,0 km/h (0 Bft) N 0,00 h 0,000 mm 0 W/m 5,3 C 6,4 C 0,0 km/h (0 Bft)
08/04/2019 06:00 6,5 C 92 % 1008,3 hPa 0,0 l/m 0,0 km/h (0 Bft) N-NO 0,00 h 0,000 mm 0 W/m 5,2 C 6,5 C 0,3 km/h (0 Bft)
08/04/2019 07:00 6,5 C 91 % 1008,3 hPa 0,0 l/m 0,0 km/h (0 Bft) N 0,00 h 0,000 mm 15 W/m 5,2 C 6,5 C 0,2 km/h (0 Bft)
08/04/2019 08:00 7,6 C 91 % 1008,7 hPa 0,0 l/m 0,0 km/h (0 Bft) N 0,00 h 0,000 mm 29 W/m 6,2 C 7,6 C 0,0 km/h (0 Bft)
08/04/2019 09:00 10,9 C 86 % 1008,8 hPa 0,0 l/m 0,0 km/h (0 Bft) N 0,95 h 0,025 mm 387 W/m 8,5 C 10,9 C 0,0 km/h (0 Bft)
08/04/2019 10:00 13,8 C 72 % 1008,7 hPa 0,0 l/m 1,9 km/h (1 Bft) S-SO 1,00 h 0,178 mm 570 W/m 8,8 C 13,8 C 4,7 km/h (1 Bft)
08/04/2019 11:00 15,7 C 68 % 1008,4 hPa 0,0 l/m 2,9 km/h (1 Bft) SE 1,00 h 0,305 mm 700 W/m 9,7 C 15,7 C 7,0 km/h (2 Bft)
08/04/2019 12:00 16,1 C 66 % 1008,3 hPa 0,0 l/m 4,4 km/h (1 Bft) S-SE 1,00 h 0,381 mm 788 W/m 9,8 C 16,1 C 10,3 km/h (2 Bft)
08/04/2019 13:00 17,0 C 64 % 1008,0 hPa 0,0 l/m 3,4 km/h (1 Bft) E 1,00 h 0,432 mm 839 W/m 10,1 C 17,0 C 9,2 km/h (2 Bft)
08/04/2019 14:00 17,1 C 64 % 1008,2 hPa 0,0 l/m 3,6 km/h (1 Bft) E 1,00 h 0,457 mm 785 W/m 10,3 C 17,1 C 9,5 km/h (2 Bft)
08/04/2019 15:00 17,0 C 64 % 1008,1 hPa 0,0 l/m 1,7 km/h (1 Bft) E 1,00 h 0,432 mm 706 W/m 10,1 C 17,0 C 5,6 km/h (1 Bft)
08/04/2019 16:00 17,5 C 59 % 1007,6 hPa 0,0 l/m 0,5 km/h (0 Bft) E 1,00 h 0,381 mm 597 W/m 9,5 C 17,5 C 2,4 km/h (1 Bft)
08/04/2019 17:00 17,5 C 58 % 1007,4 hPa 0,0 l/m 0,4 km/h (0 Bft) E 1,00 h 0,330 mm 425 W/m 9,2 C 17,5 C 2,2 km/h (1 Bft)
08/04/2019 18:00 16,1 C 63 % 1007,4 hPa 0,0 l/m 0,6 km/h (0 Bft) E 0,98 h 0,229 mm 231 W/m 9,1 C 16,1 C 1,8 km/h (1 Bft)
08/04/2019 19:00 14,1 C 71 % 1007,6 hPa 0,0 l/m 0,0 km/h (0 Bft) N 0,15 h 0,127 mm 38 W/m 9,0 C 14,1 C 0,2 km/h (0 Bft)
08/04/2019 20:00 12,2 C 76 % 1008,0 hPa 0,0 l/m 0,0 km/h (0 Bft) N 0,00 h 0,025 mm 5 W/m 8,0 C 12,2 C 0,0 km/h (0 Bft)
08/04/2019 21:00 11,2 C 82 % 1008,0 hPa 0,0 l/m 0,0 km/h (0 Bft) N 0,00 h 0,000 mm 0 W/m 8,1 C 11,2 C 0,0 km/h (0 Bft)
08/04/2019 22:00 10,4 C 84 % 1008,3 hPa 0,0 l/m 0,0 km/h (0 Bft) N 0,00 h 0,025 mm 0 W/m 7,8 C 10,4 C 0,0 km/h (0 Bft)
08/04/2019 23:00 9,7 C 89 % 1008,3 hPa 0,0 l/m 0,0 km/h (0 Bft) N 0,00 h 0,000 mm 0 W/m 7,9 C 9,7 C 0,0 km/h (0 Bft)
09/04/2019 00:00 9,5 C 90 % 1008,3 hPa 0,0 l/m 0,0 km/h (0 Bft) N 0,00 h 0,000 mm 0 W/m 8,0 C 9,5 C 0,0 km/h (0 Bft)
09/04/2019 01:00 9,0 C 89 % 1008,3 hPa 0,0 l/m 0,0 km/h (0 Bft) N 0,00 h 0,000 mm 0 W/m 7,3 C 9,0 C 0,0 km/h (0 Bft)
09/04/2019 02:00 8,4 C 90 % 1008,3 hPa 0,0 l/m 0,0 km/h (0 Bft) N 0,00 h 0,000 mm 0 W/m 6,8 C 8,4 C 0,0 km/h (0 Bft)
09/04/2019 03:00 8,3 C 90 % 1008,1 hPa 0,0 l/m 0,0 km/h (0 Bft) N 0,00 h 0,000 mm 0 W/m 6,8 C 8,3 C 0,0 km/h (0 Bft)
09/04/2019 04:00 7,7 C 89 % 1007,9 hPa 0,0 l/m 0,0 km/h (0 Bft) N 0,00 h 0,000 mm 0 W/m 6,0 C 7,7 C 0,0 km/h (0 Bft)
09/04/2019 05:00 7,5 C 87 % 1007,8 hPa 0,0 l/m 0,0 km/h (0 Bft) N 0,00 h 0,000 mm 0 W/m 5,5 C 7,5 C 0,0 km/h (0 Bft)
09/04/2019 06:00 7,6 C 88 % 1008,0 hPa 0,0 l/m 0,0 km/h (0 Bft) N 0,00 h 0,000 mm 5 W/m 5,7 C 7,6 C 0,0 km/h (0 Bft)
09/04/2019 07:00 7,2 C 87 % 1008,2 hPa 0,0 l/m 0,0 km/h (0 Bft) N 0,00 h 0,000 mm 19 W/m 5,2 C 7,2 C 0,0 km/h (0 Bft)
09/04/2019 08:00 8,8 C 86 % 1008,5 hPa 0,0 l/m 0,0 km/h (0 Bft) N 0,00 h 0,000 mm 37 W/m 6,6 C 8,8 C 0,0 km/h (0 Bft)
09/04/2019 09:00 12,1 C 80 % 1008,6 hPa 0,0 l/m 0,0 km/h (0 Bft) E 0,88 h 0,025 mm 377 W/m 8,6 C 12,1 C 0,1 km/h (0 Bft)
09/04/2019 10:00 15,2 C 71 % 1008,4 hPa 0,0 l/m 1,1 km/h (1 Bft) E 0,88 h 0,178 mm 525 W/m 10,0 C 15,2 C 3,8 km/h (1 Bft)
09/04/2019 11:00 16,3 C 68 % 1008,3 hPa 0,0 l/m 2,7 km/h (1 Bft) E 1,00 h 0,279 mm 737 W/m 10,4 C 16,3 C 7,7 km/h (2 Bft)
09/04/2019 12:00 17,1 C 67 % 1007,9 hPa 0,0 l/m 3,6 km/h (1 Bft) E 1,00 h 0,381 mm 814 W/m 10,9 C 17,1 C 8,3 km/h (2 Bft)
09/04/2019 13:00 17,0 C 67 % 1007,7 hPa 0,0 l/m 3,1 km/h (1 Bft) E 1,00 h 0,457 mm 840 W/m 10,8 C 17,0 C 8,2 km/h (2 Bft)
09/04/2019 14:00 16,9 C 67 % 1007,7 hPa 0,0 l/m 3,2 km/h (1 Bft) E 0,88 h 0,457 mm 727 W/m 10,8 C 16,9 C 8,0 km/h (2 Bft)
09/04/2019 15:00 17,4 C 66 % 1007,3 hPa 0,0 l/m 2,2 km/h (1 Bft) E 0,83 h 0,406 mm 698 W/m 10,9 C 17,4 C 6,3 km/h (2 Bft)
09/04/2019 16:00 16,6 C 66 % 1006,9 hPa 0,0 l/m 2,3 km/h (1 Bft) SE 0,62 h 0,381 mm 481 W/m 10,2 C 16,6 C 6,7 km/h (2 Bft)
09/04/2019 17:00 15,6 C 70 % 1006,9 hPa 0,0 l/m 0,8 km/h (0 Bft) E 0,55 h 0,279 mm 303 W/m 10,2 C 15,6 C 2,8 km/h (1 Bft)
09/04/2019 18:00 14,7 C 71 % 1006,8 hPa 0,0 l/m 0,1 km/h (0 Bft) E 0,00 h 0,178 mm 76 W/m 9,5 C 14,7 C 0,3 km/h (0 Bft)
09/04/2019 19:00 13,5 C 76 % 1006,8 hPa 0,0 l/m 0,0 km/h (0 Bft) N 0,02 h 0,051 mm 20 W/m 9,3 C 13,5 C 0,1 km/h (0 Bft)
09/04/2019 20:00 12,4 C 77 % 1006,7 hPa 0,0 l/m 0,0 km/h (0 Bft) N 0,00 h 0,025 mm 5 W/m 8,4 C 12,4 C 0,0 km/h (0 Bft)
09/04/2019 21:00 11,4 C 81 % 1007,1 hPa 0,0 l/m 0,0 km/h (0 Bft) N 0,00 h 0,000 mm 0 W/m 8,3 C 11,4 C 0,0 km/h (0 Bft)
09/04/2019 22:00 10,5 C 86 % 1007,1 hPa 0,0 l/m 0,0 km/h (0 Bft) N 0,00 h 0,025 mm 0 W/m 8,2 C 10,5 C 0,0 km/h (0 Bft)
09/04/2019 23:00 10,2 C 87 % 1006,7 hPa 0,0 l/m 0,0 km/h (0 Bft) N 0,00 h 0,000 mm 0 W/m 8,1 C 10,2 C 0,0 km/h (0 Bft)
10/04/2019 00:00 9,7 C 88 % 1006,6 hPa 0,0 l/m 0,0 km/h (0 Bft) N 0,00 h 0,000 mm 0 W/m 7,8 C 9,7 C 0,0 km/h (0 Bft)
10/04/2019 01:00 9,2 C 89 % 1006,4 hPa 0,0 l/m 0,0 km/h (0 Bft) N 0,00 h 0,000 mm 0 W/m 7,5 C 9,2 C 0,0 km/h (0 Bft)
10/04/2019 02:00 9,0 C 89 % 1006,1 hPa 0,0 l/m 0,0 km/h (0 Bft) N 0,00 h 0,000 mm 0 W/m 7,3 C 9,0 C 0,0 km/h (0 Bft)
10/04/2019 03:00 9,2 C 89 % 1005,9 hPa 0,0 l/m 0,0 km/h (0 Bft) N 0,00 h 0,000 mm 0 W/m 7,5 C 9,2 C 0,0 km/h (0 Bft)
10/04/2019 04:00 9,2 C 89 % 1005,7 hPa 0,0 l/m 0,0 km/h (0 Bft) N 0,00 h 0,000 mm 0 W/m 7,6 C 9,2 C 0,0 km/h (0 Bft)
10/04/2019 05:00 9,5 C 89 % 1005,5 hPa 0,0 l/m 0,0 km/h (0 Bft) N 0,00 h 0,000 mm 0 W/m 7,9 C 9,5 C 0,0 km/h (0 Bft)
10/04/2019 06:00 9,7 C 88 % 1005,6 hPa 0,0 l/m 0,0 km/h (0 Bft) N 0,00 h 0,000 mm 5 W/m 7,8 C 9,7 C 0,0 km/h (0 Bft)
10/04/2019 07:00 9,3 C 87 % 1005,8 hPa 0,0 l/m 0,0 km/h (0 Bft) N 0,03 h 0,000 mm 24 W/m 7,2 C 9,3 C 0,0 km/h (0 Bft)
10/04/2019 08:00 10,0 C 87 % 1005,8 hPa 0,0 l/m 0,0 km/h (0 Bft) N 0,00 h 0,025 mm 126 W/m 7,9 C 10,0 C 0,0 km/h (0 Bft)
10/04/2019 09:00 12,8 C 80 % 1005,8 hPa 0,0 l/m 0,5 km/h (0 Bft) E 0,78 h 0,051 mm 306 W/m 9,5 C 12,8 C 1,2 km/h (1 Bft)
10/04/2019 10:00 15,0 C 72 % 1005,7 hPa 0,0 l/m 1,6 km/h (1 Bft) E 0,75 h 0,152 mm 532 W/m 10,0 C 15,0 C 3,8 km/h (1 Bft)
10/04/2019 11:00 17,3 C 64 % 1005,6 hPa 0,0 l/m 4,3 km/h (1 Bft) E 0,95 h 0,279 mm 818 W/m 10,5 C 17,3 C 10,1 km/h (2 Bft)
10/04/2019 12:00 17,4 C 66 % 1005,6 hPa 0,0 l/m 5,0 km/h (1 Bft) E 1,00 h 0,483 mm 815 W/m 10,9 C 17,4 C 11,3 km/h (2 Bft)
10/04/2019 13:00 16,9 C 69 % 1005,4 hPa 0,0 l/m 4,6 km/h (1 Bft) E 0,98 h 0,457 mm 823 W/m 11,2 C 16,9 C 10,9 km/h (2 Bft)
10/04/2019 14:00 18,5 C 65 % 1005,4 hPa 0,0 l/m 3,2 km/h (1 Bft) E 0,95 h 0,457 mm 903 W/m 11,8 C 18,5 C 9,7 km/h (2 Bft)
10/04/2019 15:00 17,1 C 69 % 1005,4 hPa 0,0 l/m 2,6 km/h (1 Bft) E-SE 0,28 h 0,508 mm 352 W/m 11,4 C 17,1 C 7,3 km/h (2 Bft)
10/04/2019 16:00 13,9 C 81 % 1005,9 hPa 0,2 l/m 1,4 km/h (1 Bft) S 0,00 h 0,203 mm 207 W/m 10,8 C 13,9 C 3,4 km/h (1 Bft)
10/04/2019 17:00 14,3 C 74 % 1006,1 hPa 0,0 l/m 2,4 km/h (1 Bft) S 0,23 h 0,102 mm 235 W/m 9,7 C 14,3 C 5,6 km/h (1 Bft)
10/04/2019 18:00 14,1 C 73 % 1006,0 hPa 0,0 l/m 0,0 km/h (0 Bft) N 0,15 h 0,127 mm 95 W/m 9,3 C 14,1 C 0,1 km/h (0 Bft)
10/04/2019 19:00 13,5 C 77 % 1006,3 hPa 0,0 l/m 0,0 km/h (0 Bft) N 0,12 h 0,051 mm 35 W/m 9,6 C 13,5 C 0,0 km/h (0 Bft)
10/04/2019 20:00 12,2 C 82 % 1006,6 hPa 0,0 l/m 0,0 km/h (0 Bft) N 0,00 h 0,025 mm 5 W/m 9,1 C 12,2 C 0,0 km/h (0 Bft)
10/04/2019 21:00 11,2 C 83 % 1007,3 hPa 0,0 l/m 0,0 km/h (0 Bft) N 0,00 h 0,000 mm 0 W/m 8,5 C 11,2 C 0,0 km/h (0 Bft)
10/04/2019 22:00 10,8 C 84 % 1007,6 hPa 0,0 l/m 0,0 km/h (0 Bft) S-SO 0,00 h 0,000 mm 0 W/m 8,2 C 10,8 C 0,3 km/h (0 Bft)
10/04/2019 23:00 10,7 C 84 % 1007,4 hPa 0,0 l/m 0,0 km/h (0 Bft) N 0,00 h 0,000 mm 0 W/m 8,2 C 10,7 C 0,0 km/h (0 Bft)
11/04/2019 00:00 10,0 C 86 % 1007,2 hPa 0,0 l/m 0,0 km/h (0 Bft) N 0,00 h 0,000 mm 0 W/m 7,7 C 10,0 C 0,0 km/h (0 Bft)
11/04/2019 01:00 9,4 C 87 % 1007,2 hPa 0,0 l/m 0,0 km/h (0 Bft) N 0,00 h 0,000 mm 0 W/m 7,4 C 9,4 C 0,0 km/h (0 Bft)
11/04/2019 02:00 8,9 C 89 % 1006,9 hPa 0,0 l/m 0,0 km/h (0 Bft) N 0,00 h 0,000 mm 0 W/m 7,2 C 8,9 C 0,0 km/h (0 Bft)
11/04/2019 03:00 8,9 C 89 % 1006,8 hPa 0,0 l/m 0,0 km/h (0 Bft) N 0,00 h 0,000 mm 0 W/m 7,1 C 8,9 C 0,0 km/h (0 Bft)
11/04/2019 04:00 8,9 C 86 % 1006,9 hPa 0,0 l/m 0,0 km/h (0 Bft) N 0,00 h 0,000 mm 0 W/m 6,7 C 8,9 C 0,2 km/h (0 Bft)
11/04/2019 05:00 8,7 C 85 % 1006,8 hPa 0,0 l/m 0,2 km/h (0 Bft) SO 0,00 h 0,000 mm 0 W/m 6,3 C 8,7 C 1,9 km/h (1 Bft)
11/04/2019 06:00 8,6 C 82 % 1006,8 hPa 0,0 l/m 0,0 km/h (0 Bft) O-SO 0,00 h 0,000 mm 0 W/m 5,7 C 8,6 C 1,3 km/h (1 Bft)
11/04/2019 07:00 8,3 C 82 % 1007,0 hPa 0,0 l/m 0,0 km/h (0 Bft) N 0,00 h 0,000 mm 32 W/m 5,4 C 8,3 C 0,0 km/h (0 Bft)
11/04/2019 08:00 9,7 C 83 % 1007,3 hPa 0,0 l/m 0,0 km/h (0 Bft) N 0,00 h 0,025 mm 97 W/m 6,9 C 9,7 C 0,0 km/h (0 Bft)
11/04/2019 09:00 11,6 C 78 % 1007,4 hPa 0,0 l/m 0,0 km/h (0 Bft) N 0,00 h 0,051 mm 200 W/m 8,0 C 11,6 C 0,0 km/h (0 Bft)
11/04/2019 10:00 13,0 C 77 % 1007,8 hPa 0,0 l/m 0,0 km/h (0 Bft) N 0,00 h 0,102 mm 177 W/m 9,1 C 13,0 C 0,0 km/h (0 Bft)
11/04/2019 11:00 13,2 C 78 % 1008,3 hPa 0,0 l/m 0,0 km/h (0 Bft) N 0,00 h 0,102 mm 187 W/m 9,5 C 13,2 C 0,0 km/h (0 Bft)
11/04/2019 12:00 14,0 C 78 % 1008,4 hPa 0,0 l/m 1,8 km/h (1 Bft) E-SE 0,15 h 0,102 mm 337 W/m 10,1 C 14,0 C 4,0 km/h (1 Bft)
11/04/2019 13:00 13,9 C 79 % 1008,6 hPa 0,0 l/m 0,9 km/h (0 Bft) E-SE 0,00 h 0,178 mm 232 W/m 10,3 C 13,9 C 3,0 km/h (1 Bft)
11/04/2019 14:00 13,3 C 84 % 1009,0 hPa 0,0 l/m 0,4 km/h (0 Bft) E-SE 0,00 h 0,127 mm 203 W/m 10,6 C 13,3 C 2,1 km/h (1 Bft)
11/04/2019 15:00 12,7 C 87 % 1009,1 hPa 0,2 l/m 0,2 km/h (0 Bft) E-SE 0,00 h 0,102 mm 213 W/m 10,6 C 12,7 C 1,0 km/h (0 Bft)
11/04/2019 16:00 12,7 C 84 % 1009,0 hPa 0,0 l/m 0,4 km/h (0 Bft) E-SE 0,00 h 0,102 mm 210 W/m 10,1 C 12,7 C 1,6 km/h (1 Bft)
11/04/2019 17:00 12,5 C 82 % 1009,0 hPa 0,0 l/m 0,0 km/h (0 Bft) N 0,00 h 0,102 mm 84 W/m 9,6 C 12,5 C 0,1 km/h (0 Bft)
11/04/2019 18:00 12,2 C 83 % 1009,1 hPa 0,0 l/m 0,0 km/h (0 Bft) N 0,00 h 0,051 mm 60 W/m 9,3 C 12,2 C 0,0 km/h (0 Bft)
11/04/2019 19:00 11,9 C 84 % 1009,6 hPa 0,0 l/m 0,0 km/h (0 Bft) N 0,00 h 0,025 mm 25 W/m 9,2 C 11,9 C 0,0 km/h (0 Bft)
11/04/2019 20:00 11,4 C 85 % 1009,9 hPa 0,0 l/m 0,0 km/h (0 Bft) N 0,00 h 0,025 mm 0 W/m 9,0 C 11,4 C 0,0 km/h (0 Bft)
11/04/2019 21:00 11,0 C 88 % 1010,3 hPa 0,0 l/m 0,0 km/h (0 Bft) N 0,00 h 0,000 mm 0 W/m 9,0 C 11,0 C 0,0 km/h (0 Bft)
11/04/2019 22:00 10,6 C 90 % 1010,5 hPa 0,0 l/m 0,0 km/h (0 Bft) N 0,00 h 0,000 mm 0 W/m 9,0 C 10,6 C 0,0 km/h (0 Bft)
11/04/2019 23:00 10,5 C 91 % 1010,5 hPa 0,0 l/m 0,0 km/h (0 Bft) N 0,00 h 0,000 mm 0 W/m 9,0 C 10,5 C 0,0 km/h (0 Bft)
12/04/2019 00:00 10,4 C 92 % 1010,5 hPa 0,0 l/m 0,0 km/h (0 Bft) N 0,00 h 0,000 mm 0 W/m 9,1 C 10,4 C 0,0 km/h (0 Bft)
12/04/2019 01:00 10,5 C 92 % 1010,6 hPa 0,0 l/m 0,0 km/h (0 Bft) N 0,00 h 0,000 mm 0 W/m 9,2 C 10,5 C 0,0 km/h (0 Bft)
12/04/2019 02:00 10,3 C 91 % 1010,6 hPa 0,0 l/m 0,0 km/h (0 Bft) N 0,00 h 0,000 mm 0 W/m 8,9 C 10,3 C 0,0 km/h (0 Bft)
12/04/2019 03:00 10,1 C 91 % 1010,5 hPa 0,0 l/m 0,0 km/h (0 Bft) N 0,00 h 0,000 mm 0 W/m 8,6 C 10,1 C 0,0 km/h (0 Bft)
12/04/2019 04:00 9,9 C 87 % 1010,2 hPa 0,0 l/m 0,0 km/h (0 Bft) N 0,00 h 0,000 mm 0 W/m 7,9 C 9,9 C 0,1 km/h (0 Bft)
12/04/2019 05:00 9,6 C 85 % 1010,1 hPa 0,0 l/m 0,0 km/h (0 Bft) N 0,00 h 0,000 mm 0 W/m 7,3 C 9,6 C 0,2 km/h (0 Bft)
12/04/2019 06:00 9,7 C 83 % 1010,1 hPa 0,0 l/m 0,0 km/h (0 Bft) N 0,00 h 0,000 mm 0 W/m 7,0 C 9,7 C 0,5 km/h (0 Bft)
12/04/2019 07:00 10,1 C 82 % 1010,6 hPa 0,0 l/m 0,0 km/h (0 Bft) N 0,00 h 0,000 mm 43 W/m 7,2 C 10,1 C 0,0 km/h (0 Bft)
12/04/2019 08:00 11,2 C 80 % 1010,8 hPa 0,0 l/m 0,0 km/h (0 Bft) N 0,75 h 0,025 mm 162 W/m 8,0 C 11,2 C 0,0 km/h (0 Bft)
12/04/2019 09:00 13,3 C 77 % 1011,0 hPa 0,0 l/m 0,3 km/h (0 Bft) E 0,52 h 0,076 mm 249 W/m 9,4 C 13,3 C 0,8 km/h (0 Bft)
12/04/2019 10:00 14,5 C 74 % 1011,2 hPa 0,0 l/m 1,4 km/h (1 Bft) E 0,33 h 0,127 mm 323 W/m 9,8 C 14,5 C 3,1 km/h (1 Bft)
12/04/2019 11:00 14,7 C 73 % 1011,5 hPa 0,0 l/m 2,7 km/h (1 Bft) SE 0,00 h 0,178 mm 247 W/m 9,9 C 14,7 C 5,1 km/h (1 Bft)
12/04/2019 12:00 14,6 C 75 % 1011,5 hPa 0,0 l/m 1,5 km/h (1 Bft) S-SO 0,00 h 0,127 mm 191 W/m 10,2 C 14,6 C 3,6 km/h (1 Bft)
12/04/2019 13:00 14,9 C 75 % 1011,4 hPa 0,0 l/m 5,2 km/h (1 Bft) SO 0,00 h 0,102 mm 326 W/m 10,6 C 14,9 C 8,4 km/h (2 Bft)
12/04/2019 14:00 15,5 C 76 % 1011,3 hPa 0,2 l/m 1,2 km/h (1 Bft) SO 0,00 h 0,178 mm 229 W/m 11,2 C 15,5 C 2,4 km/h (1 Bft)
12/04/2019 15:00 16,0 C 80 % 1011,4 hPa 0,0 l/m 0,3 km/h (0 Bft) SO 0,27 h 0,127 mm 367 W/m 12,5 C 16,0 C 1,2 km/h (1 Bft)
12/04/2019 16:00 17,5 C 68 % 1010,9 hPa 0,0 l/m 1,0 km/h (0 Bft) SE 0,68 h 0,203 mm 462 W/m 11,5 C 17,5 C 3,1 km/h (1 Bft)
12/04/2019 17:00 16,3 C 68 % 1011,0 hPa 0,0 l/m 0,3 km/h (0 Bft) E 0,17 h 0,254 mm 136 W/m 10,5 C 16,3 C 1,5 km/h (1 Bft)
12/04/2019 18:00 14,7 C 74 % 1011,3 hPa 0,0 l/m 0,0 km/h (0 Bft) N 0,00 h 0,076 mm 69 W/m 10,1 C 14,7 C 0,1 km/h (0 Bft)
12/04/2019 19:00 13,6 C 79 % 1011,5 hPa 0,0 l/m 0,0 km/h (0 Bft) N 0,00 h 0,051 mm 13 W/m 10,0 C 13,6 C 0,0 km/h (0 Bft)
12/04/2019 20:00 12,1 C 84 % 1011,8 hPa 0,0 l/m 0,0 km/h (0 Bft) N 0,00 h 0,000 mm 5 W/m 9,5 C 12,1 C 0,0 km/h (0 Bft)
12/04/2019 21:00 11,2 C 84 % 1012,1 hPa 0,0 l/m 0,0 km/h (0 Bft) N 0,00 h 0,000 mm 0 W/m 8,6 C 11,2 C 0,0 km/h (0 Bft)
12/04/2019 22:00 11,2 C 82 % 1012,1 hPa 0,0 l/m 0,0 km/h (0 Bft) N 0,00 h 0,000 mm 0 W/m 8,3 C 11,2 C 0,0 km/h (0 Bft)
12/04/2019 23:00 10,7 C 82 % 1012,1 hPa 0,0 l/m 0,0 km/h (0 Bft) N 0,00 h 0,025 mm 0 W/m 7,8 C 10,7 C 0,0 km/h (0 Bft)
13/04/2019 00:00 10,4 C 81 % 1012,1 hPa 0,0 l/m 0,0 km/h (0 Bft) N 0,00 h 0,025 mm 0 W/m 7,3 C 10,4 C 0,1 km/h (0 Bft)
13/04/2019 01:00 10,2 C 81 % 1011,9 hPa 0,0 l/m 0,0 km/h (0 Bft) N 0,00 h 0,025 mm 0 W/m 7,0 C 10,2 C 0,2 km/h (0 Bft)
13/04/2019 02:00 10,0 C 79 % 1011,8 hPa 0,0 l/m 0,0 km/h (0 Bft) N 0,00 h 0,025 mm 0 W/m 6,5 C 10,0 C 0,1 km/h (0 Bft)
13/04/2019 03:00 10,0 C 78 % 1011,6 hPa 0,0 l/m 0,0 km/h (0 Bft) N 0,00 h 0,025 mm 0 W/m 6,3 C 10,0 C 0,2 km/h (0 Bft)
13/04/2019 04:00 9,8 C 78 % 1011,5 hPa 0,0 l/m 0,0 km/h (0 Bft) N 0,00 h 0,025 mm 0 W/m 6,2 C 9,8 C 0,1 km/h (0 Bft)
13/04/2019 05:00 10,1 C 76 % 1011,5 hPa 0,0 l/m 0,0 km/h (0 Bft) N 0,00 h 0,025 mm 0 W/m 6,1 C 10,1 C 0,5 km/h (0 Bft)
13/04/2019 06:00 10,0 C 76 % 1011,6 hPa 0,0 l/m 0,0 km/h (0 Bft) N 0,00 h 0,025 mm 5 W/m 5,9 C 10,0 C 0,1 km/h (0 Bft)
13/04/2019 07:00 10,1 C 76 % 1011,9 hPa 0,0 l/m 0,0 km/h (0 Bft) E-NE 0,05 h 0,000 mm 24 W/m 6,2 C 10,1 C 0,0 km/h (0 Bft)
13/04/2019 08:00 11,3 C 76 % 1012,3 hPa 0,0 l/m 0,1 km/h (0 Bft) E-NE 0,00 h 0,025 mm 53 W/m 7,3 C 11,3 C 0,4 km/h (0 Bft)
13/04/2019 09:00 14,6 C 71 % 1012,7 hPa 0,0 l/m 0,6 km/h (0 Bft) E-NE 0,82 h 0,025 mm 371 W/m 9,4 C 14,6 C 2,2 km/h (1 Bft)
13/04/2019 10:00 17,0 C 63 % 1013,0 hPa 0,0 l/m 1,8 km/h (1 Bft) E-SE 1,00 h 0,203 mm 579 W/m 9,9 C 17,0 C 4,9 km/h (1 Bft)
13/04/2019 11:00 18,1 C 62 % 1013,0 hPa 0,0 l/m 6,6 km/h (2 Bft) S 0,93 h 0,330 mm 756 W/m 10,6 C 18,1 C 11,6 km/h (2 Bft)
13/04/2019 12:00 17,4 C 67 % 1012,8 hPa 0,0 l/m 5,1 km/h (1 Bft) S-SE 0,30 h 0,457 mm 464 W/m 11,1 C 17,4 C 10,8 km/h (2 Bft)
13/04/2019 13:00 16,9 C 69 % 1012,5 hPa 0,0 l/m 2,1 km/h (1 Bft) S 0,08 h 0,330 mm 322 W/m 11,1 C 16,9 C 6,5 km/h (2 Bft)
13/04/2019 14:00 17,3 C 65 % 1012,3 hPa 0,0 l/m 4,5 km/h (1 Bft) S 0,50 h 0,203 mm 570 W/m 10,7 C 17,3 C 9,5 km/h (2 Bft)
13/04/2019 15:00 17,3 C 64 % 1012,0 hPa 0,0 l/m 5,1 km/h (1 Bft) S 0,48 h 0,330 mm 477 W/m 10,4 C 17,3 C 10,7 km/h (2 Bft)
13/04/2019 16:00 16,6 C 69 % 1011,6 hPa 0,0 l/m 2,1 km/h (1 Bft) E 0,22 h 0,305 mm 295 W/m 10,9 C 16,6 C 5,7 km/h (1 Bft)
13/04/2019 17:00 15,8 C 75 % 1011,5 hPa 0,0 l/m 1,9 km/h (1 Bft) E 0,25 h 0,178 mm 219 W/m 11,4 C 15,8 C 6,4 km/h (2 Bft)
13/04/2019 18:00 14,7 C 82 % 1011,5 hPa 0,0 l/m 0,3 km/h (0 Bft) E-SE 0,05 h 0,127 mm 106 W/m 11,7 C 14,7 C 1,7 km/h (1 Bft)
13/04/2019 19:00 14,1 C 86 % 1011,5 hPa 0,0 l/m 0,0 km/h (0 Bft) N 0,00 h 0,051 mm 38 W/m 11,7 C 14,1 C 0,1 km/h (0 Bft)
13/04/2019 20:00 13,3 C 89 % 1011,6 hPa 0,0 l/m 0,0 km/h (0 Bft) N 0,00 h 0,025 mm 0 W/m 11,5 C 13,3 C 0,1 km/h (0 Bft)
13/04/2019 21:00 12,5 C 92 % 1011,6 hPa 0,0 l/m 0,0 km/h (0 Bft) N 0,00 h 0,000 mm 0 W/m 11,2 C 12,5 C 0,0 km/h (0 Bft)
13/04/2019 22:00 11,7 C 92 % 1011,7 hPa 0,0 l/m 0,0 km/h (0 Bft) N 0,00 h 0,000 mm 0 W/m 10,5 C 11,7 C 0,0 km/h (0 Bft)
13/04/2019 23:00 11,0 C 93 % 1011,4 hPa 0,0 l/m 0,0 km/h (0 Bft) N 0,00 h 0,000 mm 0 W/m 9,9 C 11,0 C 0,0 km/h (0 Bft)
14/04/2019 00:00 10,7 C 94 % 1011,1 hPa 0,0 l/m 0,0 km/h (0 Bft) N 0,00 h 0,000 mm 0 W/m 9,8 C 10,7 C 0,0 km/h (0 Bft)
14/04/2019 01:00 10,3 C 95 % 1010,6 hPa 0,0 l/m 0,0 km/h (0 Bft) N 0,00 h 0,000 mm 0 W/m 9,6 C 10,3 C 0,0 km/h (0 Bft)
14/04/2019 02:00 9,7 C 95 % 1009,8 hPa 0,0 l/m 0,0 km/h (0 Bft) N 0,00 h 0,000 mm 0 W/m 8,9 C 9,7 C 0,1 km/h (0 Bft)
14/04/2019 03:00 8,7 C 94 % 1009,0 hPa 0,0 l/m 0,0 km/h (0 Bft) N 0,00 h 0,000 mm 0 W/m 7,7 C 8,7 C 0,0 km/h (0 Bft)
14/04/2019 04:00 8,1 C 93 % 1008,6 hPa 0,0 l/m 0,0 km/h (0 Bft) N 0,00 h 0,000 mm 0 W/m 7,0 C 8,1 C 0,4 km/h (0 Bft)
14/04/2019 05:00 7,6 C 88 % 1008,0 hPa 0,0 l/m 0,1 km/h (0 Bft) NO 0,00 h 0,000 mm 0 W/m 5,7 C 7,6 C 1,5 km/h (1 Bft)
14/04/2019 06:00 7,4 C 77 % 1007,5 hPa 0,0 l/m 0,3 km/h (0 Bft) NO 0,00 h 0,000 mm 5 W/m 3,7 C 7,4 C 1,6 km/h (1 Bft)
14/04/2019 07:00 8,0 C 83 % 1007,8 hPa 0,0 l/m 0,0 km/h (0 Bft) N 0,00 h 0,000 mm 25 W/m 5,2 C 8,0 C 0,0 km/h (0 Bft)
14/04/2019 08:00 9,2 C 82 % 1008,1 hPa 0,0 l/m 0,0 km/h (0 Bft) N 0,00 h 0,025 mm 58 W/m 6,3 C 9,2 C 0,0 km/h (0 Bft)
14/04/2019 09:00 11,8 C 77 % 1008,4 hPa 0,0 l/m 0,5 km/h (0 Bft) E 0,77 h 0,025 mm 389 W/m 7,9 C 11,8 C 1,8 km/h (1 Bft)
14/04/2019 10:00 14,5 C 74 % 1008,7 hPa 0,0 l/m 2,9 km/h (1 Bft) E 0,77 h 0,203 mm 541 W/m 9,9 C 14,5 C 6,6 km/h (2 Bft)
14/04/2019 11:00 14,8 C 71 % 1009,1 hPa 0,0 l/m 3,6 km/h (1 Bft) E-SE 0,50 h 0,279 mm 558 W/m 9,5 C 14,8 C 9,1 km/h (2 Bft)
14/04/2019 12:00 14,0 C 71 % 1009,5 hPa 0,0 l/m 6,5 km/h (2 Bft) S 0,20 h 0,279 mm 461 W/m 8,9 C 14,0 C 12,2 km/h (2 Bft)
14/04/2019 13:00 13,7 C 72 % 1009,5 hPa 0,0 l/m 7,3 km/h (2 Bft) SO 0,25 h 0,254 mm 449 W/m 8,6 C 13,7 C 14,7 km/h (3 Bft)
14/04/2019 14:00 13,3 C 71 % 1010,2 hPa 0,0 l/m 10,1 km/h (2 Bft) S-SO 0,00 h 0,254 mm 226 W/m 8,2 C 13,3 C 17,2 km/h (3 Bft)
14/04/2019 15:00 12,1 C 77 % 1010,6 hPa 0,0 l/m 3,7 km/h (1 Bft) SO 0,00 h 0,152 mm 69 W/m 8,2 C 12,1 C 8,4 km/h (2 Bft)
14/04/2019 16:00 11,3 C 84 % 1010,9 hPa 0,4 l/m 2,2 km/h (1 Bft) O-SO 0,00 h 0,051 mm 121 W/m 8,7 C 11,3 C 5,7 km/h (1 Bft)
14/04/2019 17:00 11,5 C 87 % 1011,1 hPa 0,0 l/m 0,0 km/h (0 Bft) S-SO 0,10 h 0,076 mm 144 W/m 9,4 C 11,5 C 0,2 km/h (0 Bft)
14/04/2019 18:00 12,4 C 81 % 1010,8 hPa 0,0 l/m 6,0 km/h (2 Bft) S-SO 0,78 h 0,076 mm 234 W/m 9,2 C 12,4 C 12,5 km/h (3 Bft)
14/04/2019 19:00 11,6 C 81 % 1011,5 hPa 0,0 l/m 0,0 km/h (0 Bft) N 0,02 h 0,127 mm 46 W/m 8,5 C 11,6 C 0,2 km/h (0 Bft)
14/04/2019 20:00 10,6 C 84 % 1012,2 hPa 0,0 l/m 0,0 km/h (0 Bft) N 0,05 h 0,025 mm 9 W/m 8,0 C 10,6 C 0,0 km/h (0 Bft)
14/04/2019 21:00 9,8 C 87 % 1013,4 hPa 0,0 l/m 0,0 km/h (0 Bft) N 0,00 h 0,000 mm 0 W/m 7,7 C 9,8 C 0,0 km/h (0 Bft)
14/04/2019 22:00 9,1 C 88 % 1013,8 hPa 0,0 l/m 0,0 km/h (0 Bft) N 0,00 h 0,000 mm 0 W/m 7,2 C 9,1 C 0,0 km/h (0 Bft)
14/04/2019 23:00 8,2 C 90 % 1014,2 hPa 0,0 l/m 0,0 km/h (0 Bft) N 0,00 h 0,000 mm 0 W/m 6,6 C 8,2 C 0,0 km/h (0 Bft)
Min-Date _ 08/04/19 08/04/19 10/04/19 - 08/04/19 - - - - 14/04/19 08/04/19 08/04/19
_ Min-Heure 07:03 16:48 15:00 - 00:00 - - - - 06:43 07:03 00:00
Minimum _ 6,3 C 55 % 1005,1 hPa - 0,0 km/h (0 Bft) - - - - 3,3 C 6,3 C 0,0 km/h (0 Bft)
Max-Date _ 10/04/19 08/04/19 14/04/19 14/04/19 14/04/19 - 08/04/19 10/04/19 14/04/19 12/04/19 10/04/19 14/04/19
_ Max-Heure 14:38 02:21 23:30 16:14 13:55 - 09:03 15:00 12:31 15:40 14:38 13:55
Maximum _ 19,2 C 95 % 1014,4 hPa 0,4 l/m 19,3 km/h
SO (3 Bft)
- 0,02 h 0,508 mm 1181 W/m 13,2 C 19,2 C 25,7 km/h
SO (4 Bft)
Moyenne _ 12,0 C 80 % 1009,1 hPa #1,0 l/m 0,9 km/h (0 Bft) E #34:58 h #16,602 mm 296 W/m 8,6 C 12,0 C 2,3 km/h (1 Bft)
Roquefort les pins